Time;durP1;ratioP1;P1;durP2;ratioP2;P2;SDS_P1;SDS_P2;PMS_P1;PMS_P2;Temp;Humidity;BMP_temperature;BMP_pressure;BME280_temperature;BME280_humidity;BME280_pressure;Samples;Min_cycle;Max_cycle;Signal;HPM_P1;HPM_P2
2022/03/10 00:01:45;;;;;;;43.00;18.15;;;;;;;;;;5097246;28;20020;-84
2022/03/10 00:04:11;;;;;;;42.08;17.17;;;;;;;;;;5062430;28;20100;-84
2022/03/10 00:06:36;;;;;;;38.97;17.92;;;;;;;;;;5062865;28;20038;-84
2022/03/10 00:09:02;;;;;;;39.78;15.88;;;;;;;;;;5061824;28;20438;-84
2022/03/10 00:11:28;;;;;;;39.17;15.93;;;;;;;;;;5078843;28;20024;-85
2022/03/10 00:13:54;;;;;;;48.17;19.75;;;;;;;;;;5080254;28;20062;-82
2022/03/10 00:16:20;;;;;;;50.13;20.83;;;;;;;;;;5092588;28;20050;-83
2022/03/10 00:18:46;;;;;;;46.28;20.23;;;;;;;;;;5100111;28;20087;-83
2022/03/10 00:21:11;;;;;;;47.60;19.17;;;;;;;;;;5082542;28;20043;-85
2022/03/10 00:23:37;;;;;;;41.17;18.52;;;;;;;;;;5131908;28;20075;-84
2022/03/10 00:26:02;;;;;;;44.95;18.23;;;;;;;;;;5115100;28;20039;-82
2022/03/10 00:28:28;;;;;;;43.50;17.70;;;;;;;;;;5114862;28;20046;-84
2022/03/10 00:30:53;;;;;;;49.03;20.13;;;;;;;;;;5098653;28;20043;-85
2022/03/10 00:33:19;;;;;;;47.30;19.80;;;;;;;;;;5096354;28;20028;-85
2022/03/10 00:35:44;;;;;;;52.75;20.60;;;;;;;;;;5096489;28;20106;-85
2022/03/10 00:38:10;;;;;;;43.50;18.02;;;;;;;;;;5077848;28;20046;-84
2022/03/10 00:40:35;;;;;;;47.65;17.63;;;;;;;;;;5096126;28;20516;-85
2022/03/10 00:43:01;;;;;;;45.20;16.50;;;;;;;;;;5078321;28;20024;-83
2022/03/10 00:45:26;;;;;;;44.25;16.38;;;;;;;;;;5096152;28;20449;-84
2022/03/10 00:47:52;;;;;;;41.53;15.95;;;;;;;;;;5084465;28;20047;-84
2022/03/10 00:50:18;;;;;;;40.08;14.73;;;;;;;;;;5096536;28;20035;-84
2022/03/10 00:52:44;;;;;;;35.22;14.63;;;;;;;;;;5096314;28;20153;-85
2022/03/10 00:55:10;;;;;;;36.53;14.55;;;;;;;;;;5060691;28;20410;-85
2022/03/10 00:57:36;;;;;;;39.63;14.77;;;;;;;;;;5077832;28;20031;-84
2022/03/10 01:00:03;;;;;;;28.95;11.38;;;;;;;;;;5061182;28;20035;-84
2022/03/10 01:02:30;;;;;;;38.28;13.52;;;;;;;;;;5077867;28;20098;-85
2022/03/10 01:04:56;;;;;;;41.72;16.48;;;;;;;;;;5060899;28;20027;-84
2022/03/10 01:07:23;;;;;;;31.92;14.00;;;;;;;;;;5096364;28;20138;-84
2022/03/10 01:09:48;;;;;;;41.75;15.00;;;;;;;;;;5103718;28;20079;-85
2022/03/10 01:12:14;;;;;;;40.03;15.95;;;;;;;;;;5097794;28;20317;-84
2022/03/10 01:14:39;;;;;;;34.58;14.68;;;;;;;;;;5095945;28;20028;-85
2022/03/10 01:17:04;;;;;;;36.90;14.18;;;;;;;;;;5060625;28;20035;-85
2022/03/10 01:19:30;;;;;;;37.15;13.30;;;;;;;;;;5095429;28;20027;-85
2022/03/10 01:21:56;;;;;;;34.38;13.55;;;;;;;;;;5095423;28;20472;-83
2022/03/10 01:24:22;;;;;;;34.80;13.05;;;;;;;;;;5080927;28;20111;-84
2022/03/10 01:26:47;;;;;;;33.17;13.40;;;;;;;;;;5103546;28;20059;-85
2022/03/10 01:29:13;;;;;;;31.83;13.85;;;;;;;;;;5061034;28;20461;-84
2022/03/10 01:31:39;;;;;;;29.83;12.00;;;;;;;;;;5078806;28;20051;-85
2022/03/10 01:34:05;;;;;;;25.08;12.05;;;;;;;;;;5079451;28;20468;-85
2022/03/10 01:36:30;;;;;;;39.30;13.95;;;;;;;;;;5095215;28;20032;-83
2022/03/10 01:38:56;;;;;;;35.53;14.88;;;;;;;;;;5060630;28;20421;-84
2022/03/10 01:41:21;;;;;;;40.80;18.95;;;;;;;;;;5095377;28;20028;-84
2022/03/10 01:44:00;;;;;;;32.55;14.00;;;;;;;;;;5077050;28;20373;-84
2022/03/10 01:46:26;;;;;;;30.48;12.90;;;;;;;;;;5077632;28;20031;-84
2022/03/10 01:48:52;;;;;;;27.40;12.52;;;;;;;;;;5077050;28;20081;-84
2022/03/10 01:51:18;;;;;;;28.95;13.20;;;;;;;;;;5095563;28;20056;-84
2022/03/10 01:53:43;;;;;;;26.83;11.65;;;;;;;;;;5080510;28;20066;-84
2022/03/10 01:56:09;;;;;;;40.67;14.48;;;;;;;;;;5061508;28;20415;-85
2022/03/10 01:58:35;;;;;;;33.13;14.18;;;;;;;;;;5060053;28;20063;-84
2022/03/10 02:01:01;;;;;;;29.10;12.35;;;;;;;;;;5060530;28;20028;-85
2022/03/10 02:03:26;;;;;;;32.08;14.18;;;;;;;;;;5077046;28;20024;-84
2022/03/10 02:05:53;;;;;;;37.58;13.52;;;;;;;;;;5075556;28;20040;-84
2022/03/10 02:11:02;;;;;;;38.67;18.25;;;;;;;;;;5075186;28;20493;-84
2022/03/10 02:13:28;;;;;;;38.50;14.13;;;;;;;;;;5080282;28;20052;-85
2022/03/10 02:18:37;;;;;;;35.95;13.85;;;;;;;;;;5079042;28;20116;-85
2022/03/10 02:21:03;;;;;;;32.72;14.07;;;;;;;;;;5094991;28;20425;-85
2022/03/10 02:23:28;;;;;;;34.83;14.60;;;;;;;;;;5076593;28;20031;-85
2022/03/10 02:25:54;;;;;;;35.25;15.15;;;;;;;;;;5076180;28;20062;-85
2022/03/10 02:28:20;;;;;;;33.40;14.95;;;;;;;;;;5060467;28;20039;-85
2022/03/10 02:30:45;;;;;;;47.13;17.90;;;;;;;;;;5077115;28;20020;-85
2022/03/10 02:33:11;;;;;;;31.90;13.43;;;;;;;;;;5099756;28;20504;-84
2022/03/10 02:35:36;;;;;;;40.03;15.55;;;;;;;;;;5094826;28;20339;-84
2022/03/10 02:38:02;;;;;;;34.80;13.98;;;;;;;;;;5059585;28;20110;-84
2022/03/10 02:40:27;;;;;;;39.53;15.65;;;;;;;;;;5076104;28;20024;-85
2022/03/10 02:42:53;;;;;;;37.50;15.20;;;;;;;;;;5094133;28;20020;-84
2022/03/10 02:45:18;;;;;;;40.97;16.67;;;;;;;;;;5107070;28;20047;-85
2022/03/10 02:47:44;;;;;;;35.17;15.82;;;;;;;;;;5096655;28;20127;-85
2022/03/10 02:50:09;;;;;;;37.30;14.32;;;;;;;;;;5076867;28;20035;-84
2022/03/10 02:52:38;;;;;;;45.40;16.48;;;;;;;;;;5081028;28;20032;-85
2022/03/10 02:55:05;;;;;;;32.60;12.68;;;;;;;;;;5063302;28;20024;-85
2022/03/10 02:57:31;;;;;;;31.27;12.95;;;;;;;;;;5043373;28;20078;-84
2022/03/10 02:59:58;;;;;;;33.30;13.65;;;;;;;;;;5076265;28;20117;-84
2022/03/10 03:02:23;;;;;;;36.00;16.73;;;;;;;;;;5043046;28;20024;-84
2022/03/10 03:04:48;;;;;;;28.67;13.48;;;;;;;;;;5093987;28;20031;-85
2022/03/10 03:07:14;;;;;;;31.83;13.50;;;;;;;;;;5076240;28;20028;-85
2022/03/10 03:09:39;;;;;;;31.40;14.48;;;;;;;;;;5075843;28;20095;-85
2022/03/10 03:12:05;;;;;;;31.25;12.35;;;;;;;;;;5075876;28;20368;-83
2022/03/10 03:14:31;;;;;;;30.27;13.60;;;;;;;;;;5076865;28;20020;-85
2022/03/10 03:16:57;;;;;;;27.80;12.18;;;;;;;;;;5097408;28;20027;-84
2022/03/10 03:19:23;;;;;;;29.33;11.85;;;;;;;;;;5080522;28;20098;-85
2022/03/10 03:21:48;;;;;;;33.78;13.07;;;;;;;;;;5079821;28;20024;-85
2022/03/10 03:24:14;;;;;;;35.83;14.25;;;;;;;;;;5063102;28;20050;-85
2022/03/10 03:26:39;;;;;;;74.72;29.98;;;;;;;;;;5079363;28;20082;-85
2022/03/10 03:29:05;;;;;;;39.22;16.00;;;;;;;;;;5062971;28;20031;-85
2022/03/10 03:31:30;;;;;;;36.13;13.77;;;;;;;;;;5097513;28;20429;-84
2022/03/10 03:33:56;;;;;;;35.78;13.80;;;;;;;;;;5070654;28;20028;-85
2022/03/10 03:36:21;;;;;;;32.80;13.45;;;;;;;;;;5052197;28;20354;-85
2022/03/10 03:38:47;;;;;;;32.30;12.43;;;;;;;;;;5099826;28;20058;-85
2022/03/10 03:41:12;;;;;;;32.80;12.32;;;;;;;;;;5079145;28;20020;-84
2022/03/10 03:43:38;;;;;;;29.00;12.32;;;;;;;;;;5078504;28;20032;-85
2022/03/10 03:46:03;;;;;;;33.85;13.65;;;;;;;;;;5062416;28;20020;-85
2022/03/10 03:48:29;;;;;;;29.98;13.02;;;;;;;;;;5097395;28;20046;-85
2022/03/10 03:50:54;;;;;;;33.28;13.55;;;;;;;;;;5062712;28;20055;-86
2022/03/10 03:53:20;;;;;;;29.02;12.80;;;;;;;;;;5079414;28;20362;-85
2022/03/10 03:55:45;;;;;;;32.70;12.85;;;;;;;;;;5088729;28;20012;-84
2022/03/10 03:58:11;;;;;;;30.45;13.07;;;;;;;;;;5099295;28;20028;-84
2022/03/10 04:00:37;;;;;;;30.55;12.82;;;;;;;;;;5080878;28;20111;-84
2022/03/10 04:03:09;;;;;;;28.42;11.57;;;;;;;;;;5078919;28;20050;-85
2022/03/10 04:05:35;;;;;;;33.45;14.27;;;;;;;;;;5096786;28;20024;-85
2022/03/10 04:08:01;;;;;;;31.50;12.32;;;;;;;;;;5062237;28;20392;-85
2022/03/10 04:10:26;;;;;;;28.88;12.60;;;;;;;;;;5078536;28;20097;-85
2022/03/10 04:12:52;;;;;;;32.28;13.65;;;;;;;;;;5078859;28;20039;-85
2022/03/10 04:15:17;;;;;;;39.35;16.38;;;;;;;;;;5078566;28;20028;-85
2022/03/10 04:17:43;;;;;;;34.50;14.85;;;;;;;;;;5097108;28;20024;-85
2022/03/10 04:20:13;;;;;;;38.25;14.05;;;;;;;;;;5099213;28;20024;-86
2022/03/10 04:22:42;;;;;;;27.95;13.02;;;;;;;;;;5096801;28;20434;-85
2022/03/10 04:25:08;;;;;;;33.58;13.43;;;;;;;;;;5079010;28;20479;-84
2022/03/10 04:27:34;;;;;;;38.83;17.33;;;;;;;;;;5096650;28;20028;-85
2022/03/10 04:30:00;;;;;;;41.15;16.17;;;;;;;;;;5060508;28;20059;-85
2022/03/10 04:32:25;;;;;;;41.42;17.80;;;;;;;;;;5078315;28;20085;-85
2022/03/10 04:34:51;;;;;;;44.78;16.58;;;;;;;;;;5061684;28;20032;-84
2022/03/10 04:37:16;;;;;;;36.55;15.48;;;;;;;;;;5096330;28;20029;-84
2022/03/10 04:39:42;;;;;;;35.78;14.52;;;;;;;;;;5081958;28;20531;-85
2022/03/10 04:42:07;;;;;;;42.17;19.13;;;;;;;;;;5079991;28;20028;-85
2022/03/10 04:44:32;;;;;;;40.00;16.92;;;;;;;;;;5096103;28;20024;-84
2022/03/10 04:46:58;;;;;;;37.50;15.63;;;;;;;;;;5096121;28;20038;-85
2022/03/10 04:49:24;;;;;;;41.45;16.23;;;;;;;;;;5078297;28;20020;-84
2022/03/10 04:51:49;;;;;;;41.90;16.63;;;;;;;;;;5078341;28;20027;-85
2022/03/10 04:54:15;;;;;;;47.92;18.85;;;;;;;;;;5061457;28;20047;-84
2022/03/10 04:56:40;;;;;;;42.58;17.38;;;;;;;;;;5044693;28;20377;-84
2022/03/10 04:59:06;;;;;;;51.53;19.88;;;;;;;;;;5062033;28;20024;-84
2022/03/10 05:01:31;;;;;;;48.83;20.25;;;;;;;;;;5078136;28;20036;-84
2022/03/10 05:03:57;;;;;;;39.10;15.82;;;;;;;;;;5078264;28;20035;-84
2022/03/10 05:06:22;;;;;;;43.00;16.95;;;;;;;;;;5077573;28;20035;-84
2022/03/10 05:08:48;;;;;;;48.53;18.02;;;;;;;;;;5111428;28;20453;-84
2022/03/10 05:11:13;;;;;;;46.90;17.45;;;;;;;;;;5095480;28;20026;-84
2022/03/10 05:13:39;;;;;;;41.83;16.83;;;;;;;;;;5095512;28;20362;-85
2022/03/10 05:16:05;;;;;;;56.13;20.30;;;;;;;;;;5095746;28;20024;-84
2022/03/10 05:18:30;;;;;;;50.28;20.05;;;;;;;;;;5095642;28;20031;-84
2022/03/10 05:20:56;;;;;;;54.47;20.35;;;;;;;;;;5095906;28;20028;-84
2022/03/10 05:23:21;;;;;;;53.25;20.40;;;;;;;;;;5078500;28;20028;-84
2022/03/10 05:25:48;;;;;;;58.53;22.08;;;;;;;;;;5060929;28;20032;-84
2022/03/10 05:28:14;;;;;;;52.22;21.73;;;;;;;;;;5076951;28;20131;-81
2022/03/10 05:30:42;;;;;;;56.42;23.00;;;;;;;;;;5095652;28;20388;-84
2022/03/10 05:33:09;;;;;;;77.95;28.60;;;;;;;;;;5077994;28;20453;-84
2022/03/10 05:35:35;;;;;;;63.42;23.90;;;;;;;;;;5061424;28;20031;-84
2022/03/10 05:38:01;;;;;;;65.63;23.83;;;;;;;;;;5088944;28;20032;-82
2022/03/10 05:40:26;;;;;;;70.25;25.73;;;;;;;;;;5065272;28;20043;-83
2022/03/10 05:42:53;;;;;;;67.40;27.95;;;;;;;;;;5056832;28;20025;-83
2022/03/10 05:45:20;;;;;;;69.05;26.95;;;;;;;;;;5047680;28;20129;-84
2022/03/10 05:47:55;;;;;;;66.47;28.17;;;;;;;;;;5050004;28;20025;-81
2022/03/10 05:50:22;;;;;;;68.15;26.73;;;;;;;;;;5090583;28;20021;-85
2022/03/10 05:52:48;;;;;;;63.78;25.13;;;;;;;;;;5083700;28;20024;-84
2022/03/10 05:55:32;;;;;;;62.33;25.92;;;;;;;;;;5084287;28;20091;-84
2022/03/10 05:57:57;;;;;;;66.72;27.63;;;;;;;;;;5114979;28;20028;-83
2022/03/10 06:00:29;;;;;;;65.53;25.90;;;;;;;;;;5101182;28;20036;-82
2022/03/10 06:02:55;;;;;;;68.00;26.17;;;;;;;;;;5092638;28;20031;-78
2022/03/10 06:05:20;;;;;;;55.40;23.65;;;;;;;;;;5094058;28;20143;-82
2022/03/10 06:07:46;;;;;;;48.95;20.17;;;;;;;;;;5070482;28;20028;-81
2022/03/10 06:10:15;;;;;;;61.78;22.63;;;;;;;;;;5074745;28;20040;-83
2022/03/10 06:12:40;;;;;;;64.25;24.63;;;;;;;;;;5071580;28;20412;-79
2022/03/10 06:17:41;;;;;;;67.93;26.73;;;;;;;;;;5149799;22;20125;-76
2022/03/10 06:20:57;;;;;;;46.17;18.63;;;;;;;;;;5073343;28;20222;-78
2022/03/10 06:23:48;;;;;;;54.55;23.08;;;;;;;;;;5064792;28;20604;-81
2022/03/10 06:26:54;;;;;;;59.75;24.83;;;;;;;;;;5073057;28;20048;-85
2022/03/10 06:29:29;;;;;;;64.68;25.50;;;;;;;;;;5081759;28;20031;-78
2022/03/10 06:31:57;;;;;;;69.28;25.60;;;;;;;;;;5069789;28;20036;-79
2022/03/10 06:34:28;;;;;;;59.38;24.33;;;;;;;;;;5074651;28;20017;-79
2022/03/10 06:36:59;;;;;;;58.58;24.55;;;;;;;;;;5074878;28;20033;-80
2022/03/10 06:39:26;;;;;;;52.90;22.48;;;;;;;;;;5076318;28;20036;-78
2022/03/10 06:41:51;;;;;;;46.30;20.77;;;;;;;;;;5076667;28;20036;-78
2022/03/10 06:44:17;;;;;;;44.00;18.95;;;;;;;;;;5084076;28;20029;-80
2022/03/10 06:46:44;;;;;;;40.13;19.00;;;;;;;;;;5075575;28;20040;-78
2022/03/10 06:49:10;;;;;;;38.75;16.38;;;;;;;;;;5075998;28;20028;-79
2022/03/10 06:51:36;;;;;;;43.47;17.55;;;;;;;;;;5071381;28;20028;-73
2022/03/10 06:54:01;;;;;;;48.58;19.75;;;;;;;;;;5072306;28;20127;-78
2022/03/10 06:56:33;;;;;;;37.08;17.48;;;;;;;;;;5073987;28;20373;-77
2022/03/10 06:58:58;;;;;;;34.92;15.60;;;;;;;;;;5076031;28;20088;-79
2022/03/10 07:01:24;;;;;;;27.88;13.02;;;;;;;;;;5077214;28;20063;-77
2022/03/10 07:03:51;;;;;;;37.42;17.02;;;;;;;;;;5074209;28;20039;-77
2022/03/10 07:06:17;;;;;;;24.95;11.50;;;;;;;;;;5075640;28;20032;-83
2022/03/10 07:08:45;;;;;;;21.13;10.38;;;;;;;;;;5080333;28;20051;-81
2022/03/10 07:11:18;;;;;;;20.38;11.25;;;;;;;;;;5059072;28;20123;-84
2022/03/10 07:13:50;;;;;;;17.15;10.02;;;;;;;;;;5054653;28;20075;-87
2022/03/10 07:16:15;;;;;;;18.92;9.73;;;;;;;;;;5069610;28;20053;-84
2022/03/10 07:18:41;;;;;;;21.52;10.45;;;;;;;;;;5084902;28;20031;-82
2022/03/10 07:21:06;;;;;;;23.92;13.93;;;;;;;;;;5088577;28;20461;-83
2022/03/10 07:23:54;;;;;;;22.67;11.73;;;;;;;;;;5081107;28;20372;-81
2022/03/10 07:26:21;;;;;;;20.35;11.30;;;;;;;;;;5082297;28;20117;-82
2022/03/10 07:28:46;;;;;;;23.13;11.85;;;;;;;;;;5092569;28;20140;-83
2022/03/10 07:31:12;;;;;;;18.67;10.65;;;;;;;;;;5088337;28;20020;-83
2022/03/10 07:33:44;;;;;;;25.73;13.85;;;;;;;;;;5090906;28;20024;-85
2022/03/10 07:36:10;;;;;;;31.33;15.30;;;;;;;;;;5068071;28;20031;-85
2022/03/10 07:38:35;;;;;;;84.60;29.10;;;;;;;;;;5071547;28;20143;-79
2022/03/10 07:44:25;;;;;;;26.75;12.60;;;;;;;;;;5056756;28;20037;-82
2022/03/10 07:46:52;;;;;;;34.25;15.02;;;;;;;;;;5086395;28;20039;-85
2022/03/10 07:49:19;;;;;;;21.33;12.80;;;;;;;;;;5099683;28;20032;-86
2022/03/10 07:51:45;;;;;;;21.83;11.20;;;;;;;;;;5087792;28;20056;-85
2022/03/10 07:54:11;;;;;;;20.42;11.52;;;;;;;;;;5092224;28;20020;-85
2022/03/10 07:56:36;;;;;;;20.25;10.90;;;;;;;;;;5103768;28;20105;-81
2022/03/10 07:59:02;;;;;;;20.88;11.57;;;;;;;;;;5089282;28;21491;-80
2022/03/10 08:01:31;;;;;;;19.48;11.07;;;;;;;;;;5082904;28;20032;-80
2022/03/10 08:03:59;;;;;;;19.10;10.48;;;;;;;;;;5104972;22;20060;-85
2022/03/10 08:06:26;;;;;;;21.80;11.57;;;;;;;;;;5061451;28;20055;-85
2022/03/10 08:08:51;;;;;;;20.15;12.00;;;;;;;;;;5082609;28;20030;-87
2022/03/10 08:11:17;;;;;;;20.00;9.73;;;;;;;;;;5087366;28;20051;-87
2022/03/10 08:13:43;;;;;;;20.92;11.48;;;;;;;;;;5098186;28;20662;-85
2022/03/10 08:16:18;;;;;;;20.33;11.00;;;;;;;;;;5056171;28;20028;-84
2022/03/10 08:18:51;;;;;;;18.23;9.90;;;;;;;;;;5081992;28;20028;-83
2022/03/10 08:24:48;;;;;;;19.08;9.45;;;;;;;;;;5281048;22;20047;-86
2022/03/10 08:27:26;;;;;;;17.23;9.48;;;;;;;;;;5081630;22;20113;-83
2022/03/10 08:29:52;;;;;;;22.83;11.07;;;;;;;;;;5045649;28;20047;-85
2022/03/10 08:32:19;;;;;;;22.30;10.77;;;;;;;;;;5051950;28;20025;-83
2022/03/10 08:34:45;;;;;;;19.80;8.80;;;;;;;;;;5082566;28;20127;-81
2022/03/10 08:37:10;;;;;;;19.77;10.25;;;;;;;;;;5048789;28;20060;-85
2022/03/10 08:39:37;;;;;;;19.67;11.77;;;;;;;;;;5088133;28;20043;-86
2022/03/10 08:42:03;;;;;;;21.08;10.45;;;;;;;;;;5054500;28;20029;-86
2022/03/10 08:44:28;;;;;;;18.83;10.55;;;;;;;;;;5070175;28;20343;-85
2022/03/10 08:46:54;;;;;;;21.05;11.38;;;;;;;;;;5064938;28;20037;-83
2022/03/10 08:49:19;;;;;;;20.92;10.82;;;;;;;;;;5081927;28;20023;-86
2022/03/10 08:51:47;;;;;;;20.13;11.02;;;;;;;;;;5077266;28;20039;-88
2022/03/10 08:54:13;;;;;;;27.15;11.55;;;;;;;;;;5065945;28;20052;-86
2022/03/10 08:56:45;;;;;;;20.50;11.52;;;;;;;;;;5082140;28;20024;-86
2022/03/10 08:59:10;;;;;;;17.58;10.35;;;;;;;;;;5041192;28;20036;-86
2022/03/10 09:01:36;;;;;;;20.33;11.52;;;;;;;;;;5105112;28;20032;-84
2022/03/10 09:04:02;;;;;;;18.45;10.40;;;;;;;;;;5122200;28;20076;-90
2022/03/10 09:06:29;;;;;;;15.52;9.75;;;;;;;;;;5098970;28;20058;-83
2022/03/10 09:08:54;;;;;;;18.73;10.27;;;;;;;;;;5094647;28;20028;-84
2022/03/10 09:11:20;;;;;;;17.48;9.60;;;;;;;;;;5074317;28;20028;-83
2022/03/10 09:13:48;;;;;;;21.73;12.50;;;;;;;;;;5096585;28;20069;-83
2022/03/10 09:16:23;;;;;;;14.77;9.40;;;;;;;;;;5074753;28;20042;-81
2022/03/10 09:18:49;;;;;;;26.67;14.32;;;;;;;;;;5093040;28;20034;-82
2022/03/10 09:21:15;;;;;;;28.42;11.95;;;;;;;;;;5087935;28;20036;-86
2022/03/10 09:23:41;;;;;;;48.28;17.70;;;;;;;;;;5069647;28;20107;-87
2022/03/10 09:26:06;;;;;;;82.32;25.63;;;;;;;;;;5060553;28;20237;-79
2022/03/10 09:28:32;;;;;;;45.60;17.50;;;;;;;;;;5076009;28;20058;-84
2022/03/10 09:30:57;;;;;;;27.73;13.32;;;;;;;;;;5076312;28;20341;-78
2022/03/10 09:33:29;;;;;;;22.70;12.00;;;;;;;;;;5093530;28;20032;-79
2022/03/10 09:35:56;;;;;;;21.88;10.25;;;;;;;;;;5078727;28;20035;-78
2022/03/10 09:38:21;;;;;;;20.35;10.27;;;;;;;;;;5071564;28;20047;-77
2022/03/10 09:40:52;;;;;;;19.17;9.43;;;;;;;;;;5086552;28;20420;-79
2022/03/10 09:43:25;;;;;;;21.25;10.45;;;;;;;;;;5075002;28;20025;-77
2022/03/10 09:45:57;;;;;;;20.33;10.63;;;;;;;;;;5077815;28;20361;-86
2022/03/10 09:48:22;;;;;;;20.73;11.07;;;;;;;;;;5087149;28;20123;-80
2022/03/10 09:51:18;;;;;;;19.45;8.38;;;;;;;;;;5046660;28;20109;-88
2022/03/10 09:53:55;;;;;;;37.72;16.23;;;;;;;;;;5081020;28;20108;-83
2022/03/10 09:56:23;;;;;;;25.33;12.55;;;;;;;;;;5046194;28;20021;-86
2022/03/10 09:58:48;;;;;;;15.70;8.63;;;;;;;;;;5040423;28;20052;-84
2022/03/10 10:01:14;;;;;;;14.98;7.93;;;;;;;;;;5076704;28;20032;-78
2022/03/10 10:03:40;;;;;;;18.77;9.73;;;;;;;;;;5054001;28;20426;-85
2022/03/10 10:06:05;;;;;;;14.18;7.50;;;;;;;;;;5039353;28;20121;-83
2022/03/10 10:08:31;;;;;;;17.75;7.78;;;;;;;;;;5054684;28;20033;-80
2022/03/10 10:10:59;;;;;;;14.32;7.47;;;;;;;;;;5071910;28;20108;-79
2022/03/10 10:13:28;;;;;;;15.73;6.93;;;;;;;;;;5072052;28;20028;-79
2022/03/10 10:15:59;;;;;;;13.02;6.82;;;;;;;;;;5069324;28;20032;-79
2022/03/10 10:18:24;;;;;;;10.88;6.50;;;;;;;;;;5054096;28;20020;-75
2022/03/10 10:20:51;;;;;;;13.70;6.32;;;;;;;;;;5072480;28;20089;-82
2022/03/10 10:23:31;;;;;;;11.75;6.13;;;;;;;;;;5054649;28;20024;-81
2022/03/10 10:26:01;;;;;;;11.88;6.32;;;;;;;;;;5039650;28;20043;-79
2022/03/10 10:28:31;;;;;;;14.40;6.40;;;;;;;;;;5072332;28;20461;-80
2022/03/10 10:31:00;;;;;;;14.15;7.20;;;;;;;;;;5072708;28;20039;-81
2022/03/10 10:33:26;;;;;;;12.48;6.55;;;;;;;;;;5055719;28;20048;-79
2022/03/10 10:36:15;;;;;;;10.48;6.38;;;;;;;;;;5035806;28;20073;-78
2022/03/10 10:38:41;;;;;;;17.30;6.90;;;;;;;;;;5064290;28;20032;-84
2022/03/10 10:41:28;;;;;;;15.65;7.90;;;;;;;;;;5095945;28;20383;-83
2022/03/10 10:44:00;;;;;;;14.10;6.95;;;;;;;;;;5076790;28;20143;-81
2022/03/10 10:46:27;;;;;;;15.02;7.72;;;;;;;;;;5089416;28;20024;-80
2022/03/10 10:48:52;;;;;;;15.20;7.03;;;;;;;;;;5078921;28;20075;-80
2022/03/10 10:51:31;;;;;;;13.80;7.18;;;;;;;;;;5056698;28;20072;-78
2022/03/10 10:53:58;;;;;;;12.98;6.80;;;;;;;;;;5060407;28;20098;-81
2022/03/10 10:56:27;;;;;;;12.43;7.05;;;;;;;;;;5092419;28;20031;-87
2022/03/10 10:58:54;;;;;;;15.95;7.47;;;;;;;;;;5055176;28;20062;-83
2022/03/10 11:01:31;;;;;;;12.05;7.20;;;;;;;;;;5042041;28;20024;-81
2022/03/10 11:03:56;;;;;;;13.07;7.78;;;;;;;;;;5056845;28;20036;-82
2022/03/10 11:06:22;;;;;;;12.48;7.60;;;;;;;;;;5057142;28;20035;-80
2022/03/10 11:08:48;;;;;;;14.13;8.02;;;;;;;;;;5095238;28;20469;-85
2022/03/10 11:11:15;;;;;;;13.15;7.18;;;;;;;;;;5078417;28;20016;-82
2022/03/10 11:13:41;;;;;;;18.58;8.90;;;;;;;;;;5095141;28;20039;-90
2022/03/10 11:16:08;;;;;;;24.95;12.65;;;;;;;;;;5064696;28;20070;-89
2022/03/10 11:18:39;;;;;;;28.45;13.65;;;;;;;;;;5070722;28;20024;-85
2022/03/10 11:21:29;;;;;;;17.52;8.70;;;;;;;;;;5049907;28;20028;-89
2022/03/10 11:27:38;;;;;;;25.55;10.30;;;;;;;;;;5027268;28;20448;-88
2022/03/10 11:30:07;;;;;;;15.95;8.95;;;;;;;;;;5078108;28;20024;-85
2022/03/10 11:32:34;;;;;;;20.02;9.75;;;;;;;;;;5066961;28;20037;-86
2022/03/10 11:35:00;;;;;;;20.90;11.50;;;;;;;;;;5083193;28;20024;-86
2022/03/10 11:37:41;;;;;;;15.68;8.93;;;;;;;;;;5049963;28;20074;-81
2022/03/10 11:40:15;;;;;;;23.10;11.68;;;;;;;;;;5072915;28;20055;-88
2022/03/10 11:42:41;;;;;;;17.67;9.02;;;;;;;;;;5045762;28;20032;-90
2022/03/10 11:45:27;;;;;;;18.23;9.52;;;;;;;;;;5058801;28;20192;-84
2022/03/10 11:47:53;;;;;;;17.90;7.43;;;;;;;;;;5084893;28;20040;-87
2022/03/10 11:50:25;;;;;;;15.43;8.40;;;;;;;;;;5081391;28;20035;-84
2022/03/10 11:52:59;;;;;;;13.68;7.93;;;;;;;;;;5101745;28;20020;-88
2022/03/10 11:56:07;;;;;;;16.30;8.80;;;;;;;;;;5085329;28;20031;-88
2022/03/10 11:58:36;;;;;;;26.20;10.88;;;;;;;;;;5080972;28;20087;-88
2022/03/10 12:01:02;;;;;;;16.08;7.88;;;;;;;;;;5088701;28;20020;-89
2022/03/10 12:03:29;;;;;;;18.60;8.93;;;;;;;;;;5083097;28;20020;-89
2022/03/10 12:05:55;;;;;;;16.23;9.27;;;;;;;;;;5069817;28;20042;-87
2022/03/10 12:08:25;;;;;;;17.63;8.68;;;;;;;;;;5107165;28;20092;-87
2022/03/10 12:10:51;;;;;;;45.78;17.90;;;;;;;;;;5055454;28;20334;-87
2022/03/10 12:13:32;;;;;;;24.73;10.70;;;;;;;;;;5074659;28;20039;-89
2022/03/10 12:15:58;;;;;;;26.45;10.80;;;;;;;;;;5065476;28;20060;-87
2022/03/10 12:18:51;;;;;;;20.55;9.50;;;;;;;;;;5077731;28;20033;-83
2022/03/10 12:21:22;;;;;;;19.83;8.93;;;;;;;;;;5081871;28;20035;-85
2022/03/10 12:23:51;;;;;;;24.83;10.98;;;;;;;;;;5075508;28;20036;-84
2022/03/10 12:26:31;;;;;;;27.33;12.27;;;;;;;;;;5097136;28;20054;-84
2022/03/10 12:29:09;;;;;;;16.23;9.02;;;;;;;;;;5082277;28;20060;-83
2022/03/10 12:31:37;;;;;;;19.08;8.85;;;;;;;;;;5048767;28;20008;-82
2022/03/10 12:34:06;;;;;;;22.00;10.32;;;;;;;;;;5076406;28;20031;-80
2022/03/10 12:36:59;;;;;;;19.95;8.15;;;;;;;;;;5064640;28;20029;-80
2022/03/10 12:39:27;;;;;;;20.27;9.63;;;;;;;;;;5085256;28;20086;-80
2022/03/10 12:42:01;;;;;;;20.65;9.57;;;;;;;;;;5050508;28;20029;-81
2022/03/10 12:44:27;;;;;;;23.48;10.57;;;;;;;;;;5059242;28;20028;-81
2022/03/10 12:46:53;;;;;;;19.63;9.07;;;;;;;;;;5058174;28;20097;-81
2022/03/10 12:49:26;;;;;;;17.80;8.82;;;;;;;;;;5057155;28;20033;-81
2022/03/10 12:51:54;;;;;;;20.23;8.90;;;;;;;;;;5074794;28;20029;-82
2022/03/10 12:54:20;;;;;;;17.77;9.55;;;;;;;;;;5040862;28;20127;-81
2022/03/10 12:56:49;;;;;;;23.38;11.60;;;;;;;;;;5081737;28;20051;-80
2022/03/10 12:59:33;;;;;;;21.60;10.48;;;;;;;;;;5043817;28;20025;-81
2022/03/10 13:02:27;;;;;;;18.40;8.65;;;;;;;;;;5057022;28;20043;-82
2022/03/10 13:05:00;;;;;;;17.80;8.85;;;;;;;;;;5075205;28;20031;-81
2022/03/10 13:07:28;;;;;;;18.52;8.50;;;;;;;;;;5075315;28;20054;-81
2022/03/10 13:09:55;;;;;;;18.83;10.38;;;;;;;;;;5057106;28;20578;-82
2022/03/10 13:12:27;;;;;;;22.75;9.50;;;;;;;;;;5056783;28;20028;-81
2022/03/10 13:14:53;;;;;;;19.35;10.02;;;;;;;;;;5057096;28;20029;-81
2022/03/10 13:17:49;;;;;;;24.20;10.40;;;;;;;;;;5063682;28;20027;-81
2022/03/10 13:20:25;;;;;;;32.75;13.70;;;;;;;;;;5073597;28;20090;-81
2022/03/10 13:22:54;;;;;;;35.55;12.57;;;;;;;;;;5073704;28;20028;-80
2022/03/10 13:25:21;;;;;;;22.42;9.38;;;;;;;;;;5039282;28;20052;-81
2022/03/10 13:27:47;;;;;;;26.35;11.15;;;;;;;;;;5054731;28;20462;-81
2022/03/10 13:30:25;;;;;;;19.65;9.02;;;;;;;;;;5074021;28;20020;-81
2022/03/10 13:32:51;;;;;;;20.30;8.63;;;;;;;;;;5072971;28;20035;-81
2022/03/10 13:35:31;;;;;;;19.38;9.18;;;;;;;;;;5022111;28;20028;-81
2022/03/10 13:37:58;;;;;;;24.07;11.47;;;;;;;;;;5076195;28;20036;-81
2022/03/10 13:40:24;;;;;;;35.38;15.10;;;;;;;;;;5055499;28;20047;-81
2022/03/10 13:42:54;;;;;;;28.35;12.43;;;;;;;;;;5073401;28;20462;-81
2022/03/10 13:45:20;;;;;;;15.88;8.30;;;;;;;;;;5039536;28;20040;-81
2022/03/10 13:48:05;;;;;;;18.35;9.05;;;;;;;;;;5074526;28;20032;-82
2022/03/10 13:50:38;;;;;;;21.08;9.38;;;;;;;;;;5074468;28;20143;-82
2022/03/10 13:53:05;;;;;;;18.92;8.85;;;;;;;;;;5057305;28;20035;-82
2022/03/10 13:55:32;;;;;;;21.35;9.52;;;;;;;;;;5040829;28;20032;-81
2022/03/10 13:57:59;;;;;;;23.08;10.50;;;;;;;;;;5084405;28;20067;-81
2022/03/10 14:00:28;;;;;;;20.85;9.25;;;;;;;;;;5040108;28;20032;-82
2022/03/10 14:02:54;;;;;;;21.65;8.80;;;;;;;;;;5074557;28;20033;-82
2022/03/10 14:05:22;;;;;;;20.73;9.38;;;;;;;;;;5074260;28;20445;-81
2022/03/10 14:08:11;;;;;;;27.27;11.48;;;;;;;;;;5048690;28;20036;-81
2022/03/10 14:10:37;;;;;;;25.20;13.73;;;;;;;;;;5074132;28;20020;-81
2022/03/10 14:13:02;;;;;;;23.80;11.65;;;;;;;;;;5074207;28;20016;-81
2022/03/10 14:15:28;;;;;;;23.73;11.05;;;;;;;;;;5056595;28;20031;-80
2022/03/10 14:17:58;;;;;;;29.88;13.68;;;;;;;;;;5058813;28;20035;-81
2022/03/10 14:20:48;;;;;;;39.33;17.23;;;;;;;;;;5074663;28;20028;-81
2022/03/10 14:23:14;;;;;;;28.55;12.77;;;;;;;;;;5074236;28;20068;-80
2022/03/10 14:25:45;;;;;;;34.78;15.75;;;;;;;;;;5073878;28;20059;-80
2022/03/10 14:28:11;;;;;;;44.83;21.38;;;;;;;;;;5074437;28;20060;-80
2022/03/10 14:30:37;;;;;;;38.17;15.05;;;;;;;;;;5074004;28;20094;-80
2022/03/10 14:33:04;;;;;;;35.72;15.32;;;;;;;;;;5074062;28;20115;-80
2022/03/10 14:35:31;;;;;;;36.40;16.02;;;;;;;;;;5056825;28;20349;-81
2022/03/10 14:37:56;;;;;;;28.65;13.57;;;;;;;;;;5061023;28;20013;-81
2022/03/10 14:40:22;;;;;;;36.15;15.35;;;;;;;;;;5045364;28;20032;-82
2022/03/10 14:42:47;;;;;;;33.13;14.50;;;;;;;;;;5073936;28;20024;-81
2022/03/10 14:45:13;;;;;;;30.83;11.35;;;;;;;;;;5074093;28;20028;-81
2022/03/10 14:47:38;;;;;;;27.27;11.93;;;;;;;;;;5056053;28;20035;-82